Terminal Aerodrome Forecast
Issued by NWS

Home | Current Version | Previous Version | Text Only | Print | Product List | Glossary Off
Versions: 1 2 3 4 5 6 7 8 9 10 11 12 13 14 15 16 17 18

000
FTUS42 KMHX 292300
TAFOAJ
TAF
KOAJ 292324Z 3000/3024 00000KT P6SM VCSH SCT050 BKN100
     FM300200 01005KT 5SM -RA OVC050
     FM300600 01003KT 1SM BR BKN003
     FM301400 01005KT P6SM SCT100
     FM301900 01005KT P6SM FEW040
      AMD LTD TO CLD VIS AND WIND=

USA.gov is the U.S. government's official web portal to all federal, state and local government web resources and services.